Allerton, Illinois
Current Conditions -  °F | °C
As of 9:14 AM on Thursday 18 Dec 2014 (Local Time) from KCMI Reporting Station
Overcast Overcast  
Wind Chill: 19°   Ceiling: 1500
Heat Index: 26°   Visibility: 7mi
Dew Point: 21°   Wind: 6mph
Humidity: 81%   Direction: 280°W
Pressure: 30.31"   Gusts: NA
Location:  39.91°N, 87.94°W
Report Text: KCMI 181514Z 28005KT 7SM OVC015 M03/M06 A3031 RMK AO2 T10331061
Loading
Personal Weather Stations






























Interactive Weather Map New forecast layout! Learn more

10-Day Weather Forecast

Advertisements
Track Severe Weather on mobile